createdAt,value
2017-08-11T00:01:22.887Z,82.20
2017-08-11T00:03:50.590Z,82.20
2017-08-11T00:06:18.237Z,82.50
2017-08-11T00:08:45.927Z,82.70
2017-08-11T00:11:13.574Z,82.80
2017-08-11T00:13:41.281Z,83.40
2017-08-11T00:16:08.927Z,82.70
2017-08-11T00:18:36.615Z,82.60
2017-08-11T00:21:04.320Z,82.60
2017-08-11T00:23:31.971Z,82.70
2017-08-11T00:25:59.651Z,83.00
2017-08-11T00:28:28.072Z,84.10
2017-08-11T00:30:55.774Z,84.00
2017-08-11T00:33:23.420Z,84.00
2017-08-11T00:35:51.111Z,83.70
2017-08-11T00:38:19.528Z,83.20
2017-08-11T00:40:47.218Z,83.10
2017-08-11T00:43:14.863Z,83.10
2017-08-11T00:45:42.546Z,83.30
2017-08-11T00:48:10.210Z,83.10
2017-08-11T00:50:37.895Z,83.30
2017-08-11T00:53:06.307Z,83.10
2017-08-11T00:55:33.994Z,83.00
2017-08-11T00:58:01.651Z,83.70
2017-08-11T01:00:29.334Z,83.40
2017-08-11T01:02:57.758Z,83.70
2017-08-11T01:05:25.448Z,83.10
2017-08-11T01:07:53.091Z,83.10
2017-08-11T01:10:20.776Z,83.30
2017-08-11T01:12:48.427Z,83.40
2017-08-11T01:15:16.115Z,83.60
2017-08-11T01:17:44.527Z,84.10
2017-08-11T01:20:12.183Z,84.10
2017-08-11T01:22:39.873Z,84.50
2017-08-11T01:25:07.518Z,84.80
2017-08-11T01:27:35.207Z,85.20
2017-08-11T01:30:02.869Z,85.30
2017-08-11T01:32:30.575Z,85.20
2017-08-11T01:34:58.677Z,85.00
2017-08-11T01:37:26.382Z,84.50
2017-08-11T01:39:54.811Z,83.90
2017-08-11T01:42:22.519Z,83.90
2017-08-11T01:44:50.187Z,84.00
2017-08-11T01:47:17.899Z,83.50
2017-08-11T01:49:45.580Z,83.80
2017-08-11T01:52:13.312Z,84.00
2017-08-11T01:54:41.011Z,84.90
2017-08-11T01:57:09.501Z,85.50
2017-08-11T01:59:37.975Z,84.90
2017-08-11T02:02:06.447Z,85.90
2017-08-11T02:04:34.907Z,85.50
2017-08-11T02:07:02.635Z,85.30
2017-08-11T02:09:30.347Z,84.70
2017-08-11T02:11:58.826Z,84.40
2017-08-11T02:14:27.258Z,84.20
2017-08-11T02:16:54.947Z,84.10
2017-08-11T02:19:22.602Z,85.00
2017-08-11T02:21:50.255Z,84.10
2017-08-11T02:24:17.966Z,84.50
2017-08-11T02:26:45.606Z,84.40
2017-08-11T02:29:14.059Z,84.40
2017-08-11T02:31:41.703Z,84.30
2017-08-11T02:34:09.389Z,84.40
2017-08-11T02:36:37.039Z,84.60
2017-08-11T02:39:04.781Z,85.00
2017-08-11T02:41:32.427Z,85.30
2017-08-11T02:44:00.119Z,85.30
2017-08-11T02:46:27.770Z,85.50
2017-08-11T02:48:55.455Z,85.50
2017-08-11T02:51:23.869Z,85.70
2017-08-11T02:53:51.559Z,85.70
2017-08-11T02:56:19.203Z,85.60
2017-08-11T02:58:46.887Z,85.70
2017-08-11T03:01:14.535Z,85.80
2017-08-11T03:03:42.871Z,85.90
2017-08-11T03:06:10.543Z,86.20
2017-08-11T03:08:38.231Z,86.20
2017-08-11T03:11:05.874Z,86.10
2017-08-11T03:13:33.562Z,85.50
2017-08-11T03:16:01.205Z,86.30
2017-08-11T03:18:28.911Z,87.30
2017-08-11T03:20:57.326Z,87.70
2017-08-11T03:23:24.969Z,88.30
2017-08-11T03:25:52.657Z,87.30
2017-08-11T03:28:20.294Z,87.40
2017-08-11T03:30:47.985Z,86.90
2017-08-11T03:33:15.632Z,87.00
2017-08-11T03:35:43.319Z,87.40
2017-08-11T03:38:10.972Z,87.30
2017-08-11T03:40:38.661Z,87.20
2017-08-11T03:45:47.836Z,86.90
2017-08-11T03:48:15.478Z,86.60
2017-08-11T03:50:43.167Z,86.60
2017-08-11T03:53:10.806Z,86.70
2017-08-11T03:55:38.499Z,86.40
2017-08-11T03:58:06.146Z,86.70
2017-08-11T04:00:33.867Z,87.10
2017-08-11T04:03:01.538Z,86.80
2017-08-11T04:05:29.254Z,87.20
2017-08-11T04:07:56.911Z,86.90
2017-08-11T04:10:24.609Z,87.40
2017-08-11T04:12:52.256Z,87.10
2017-08-11T04:15:20.702Z,87.00
2017-08-11T04:17:48.348Z,86.90
2017-08-11T04:20:16.048Z,87.20
2017-08-11T04:22:44.462Z,88.70
2017-08-11T04:25:12.155Z,88.60
2017-08-11T04:27:39.812Z,88.80
2017-08-11T04:30:07.487Z,88.90
2017-08-11T04:32:35.191Z,88.60
2017-08-11T04:35:02.851Z,88.50
2017-08-11T04:37:30.551Z,90.00
2017-08-11T04:39:58.210Z,89.60
2017-08-11T04:42:25.918Z,89.70
2017-08-11T04:44:53.578Z,90.20
2017-08-11T04:47:21.282Z,90.50
2017-08-11T04:49:48.940Z,90.90
2017-08-11T04:52:16.638Z,90.50
2017-08-11T04:54:45.059Z,90.30
2017-08-11T04:57:12.767Z,90.20
2017-08-11T04:59:40.454Z,90.30
2017-08-11T05:02:08.154Z,90.20
2017-08-11T05:04:35.806Z,90.40
2017-08-11T05:07:03.499Z,90.40
2017-08-11T05:09:31.243Z,90.60
2017-08-11T05:11:58.943Z,90.60
2017-08-11T05:14:27.362Z,91.10
2017-08-11T05:16:55.058Z,91.10
2017-08-11T05:19:22.718Z,91.20
2017-08-11T05:21:50.415Z,91.10
2017-08-11T05:24:18.068Z,91.00
2017-08-11T05:26:45.784Z,90.80
2017-08-11T05:29:13.447Z,91.30
2017-08-11T05:31:41.110Z,91.90
2017-08-11T05:34:08.810Z,92.00
2017-08-11T05:36:36.462Z,91.80
2017-08-11T05:39:04.960Z,91.90
2017-08-11T05:41:32.619Z,91.90
2017-08-11T05:44:00.323Z,91.70
2017-08-11T05:46:27.980Z,91.40
2017-08-11T05:48:55.678Z,91.40
2017-08-11T05:51:24.099Z,91.40
2017-08-11T05:53:51.803Z,91.30
2017-08-11T05:56:19.463Z,91.40
2017-08-11T05:58:47.171Z,91.10
2017-08-11T06:01:14.863Z,91.20
2017-08-11T06:03:43.046Z,91.30
2017-08-11T06:06:10.702Z,91.20
2017-08-11T06:08:38.403Z,91.30
2017-08-11T06:11:06.067Z,91.20
2017-08-11T06:13:33.767Z,91.20
2017-08-11T06:16:01.439Z,91.30
2017-08-11T06:18:29.151Z,91.20
2017-08-11T06:20:56.807Z,90.90
2017-08-11T06:23:24.507Z,91.10
2017-08-11T06:25:52.158Z,90.70
2017-08-11T06:28:19.856Z,90.90
2017-08-11T06:30:48.286Z,90.70
2017-08-11T06:33:16.001Z,90.70
2017-08-11T06:35:44.435Z,90.50
2017-08-11T06:38:12.093Z,90.40
2017-08-11T06:40:39.793Z,90.60
2017-08-11T06:43:08.210Z,90.40
2017-08-11T06:45:35.909Z,90.40
2017-08-11T06:48:03.583Z,90.50
2017-08-11T06:50:32.130Z,90.90
2017-08-11T06:52:59.784Z,90.90
2017-08-11T06:55:27.482Z,90.40
2017-08-11T06:57:55.911Z,90.70
2017-08-11T07:00:23.606Z,90.70
2017-08-11T07:02:51.263Z,90.90
2017-08-11T07:05:18.971Z,90.70
2017-08-11T07:07:46.651Z,91.00
2017-08-11T07:10:14.350Z,91.10
2017-08-11T07:12:42.010Z,91.20
2017-08-11T07:15:09.710Z,91.70
2017-08-11T07:17:38.272Z,91.60
2017-08-11T07:20:06.735Z,91.40
2017-08-11T07:22:34.415Z,91.40
2017-08-11T07:25:02.119Z,91.50
2017-08-11T07:27:29.791Z,91.50
2017-08-11T07:29:57.496Z,91.60
2017-08-11T07:32:25.154Z,92.00
2017-08-11T07:34:52.855Z,92.10
2017-08-11T07:37:20.512Z,91.80
2017-08-11T07:39:48.176Z,92.20
2017-08-11T07:42:15.895Z,92.20
2017-08-11T07:44:43.572Z,92.20
2017-08-11T07:47:11.271Z,92.00
2017-08-11T07:49:38.935Z,92.00
2017-08-11T07:52:06.634Z,92.00
2017-08-11T07:54:34.282Z,92.40
2017-08-11T07:57:02.755Z,92.50
2017-08-11T07:59:30.407Z,92.50
2017-08-11T08:01:58.866Z,91.60
2017-08-11T08:04:26.531Z,91.60
2017-08-11T08:06:54.223Z,91.80
2017-08-11T08:09:21.879Z,92.00
2017-08-11T08:11:50.333Z,92.30
2017-08-11T08:14:17.995Z,92.30
2017-08-11T08:16:45.690Z,92.20
2017-08-11T08:19:13.339Z,92.20
2017-08-11T08:21:41.103Z,92.30
2017-08-11T08:24:08.755Z,92.40
2017-08-11T08:26:37.215Z,92.40
2017-08-11T08:29:04.862Z,92.40
2017-08-11T08:31:32.562Z,92.30
2017-08-11T08:34:00.213Z,92.20
2017-08-11T08:36:27.910Z,92.30
2017-08-11T08:38:55.566Z,92.30
2017-08-11T08:41:23.280Z,92.20
2017-08-11T08:43:51.700Z,91.70
2017-08-11T08:46:19.347Z,91.70
2017-08-11T08:48:47.059Z,91.90
2017-08-11T08:51:14.719Z,92.00
2017-08-11T08:53:43.194Z,92.30
2017-08-11T08:56:10.856Z,91.90
2017-08-11T08:58:38.547Z,92.20
2017-08-11T09:01:06.191Z,92.10
2017-08-11T09:03:34.652Z,92.30
2017-08-11T09:06:02.321Z,92.30
2017-08-11T09:08:30.778Z,92.60
2017-08-11T09:10:58.430Z,92.30
2017-08-11T09:13:26.127Z,92.10
2017-08-11T09:15:54.548Z,91.80
2017-08-11T09:18:22.242Z,91.80
2017-08-11T09:20:49.900Z,91.50
2017-08-11T09:23:17.602Z,91.70
2017-08-11T09:25:57.243Z,91.80
2017-08-11T09:28:36.971Z,91.60
2017-08-11T09:31:16.518Z,91.90
2017-08-11T09:33:56.158Z,91.60
2017-08-11T09:36:30.563Z,91.40
2017-08-11T09:38:59.027Z,91.40
2017-08-11T09:41:26.675Z,91.40
2017-08-11T09:43:54.359Z,91.50
2017-08-11T09:46:22.771Z,91.40
2017-08-11T09:48:50.457Z,91.30
2017-08-11T09:51:18.098Z,90.70
2017-08-11T09:53:45.793Z,91.00
2017-08-11T09:56:13.479Z,90.80
2017-08-11T09:58:41.897Z,90.30
2017-08-11T10:01:09.586Z,90.30
2017-08-11T10:03:37.231Z,90.30
2017-08-11T10:06:04.923Z,90.80
2017-08-11T10:08:33.339Z,90.60
2017-08-11T10:11:01.023Z,90.60
2017-08-11T10:13:28.671Z,90.40
2017-08-11T10:15:56.359Z,90.70
2017-08-11T10:18:24.007Z,90.50
2017-08-11T10:20:51.695Z,90.40
2017-08-11T10:23:20.102Z,90.80
2017-08-11T10:25:47.787Z,90.60
2017-08-11T10:28:15.446Z,90.30
2017-08-11T10:30:43.138Z,90.60
2017-08-11T10:33:10.794Z,90.60
2017-08-11T10:35:38.478Z,90.80
2017-08-11T10:38:06.891Z,90.50
2017-08-11T10:40:34.578Z,90.50
2017-08-11T10:43:02.226Z,90.70
2017-08-11T10:45:29.931Z,90.40
2017-08-11T10:47:58.355Z,90.60
2017-08-11T10:50:26.003Z,90.60
2017-08-11T10:52:53.688Z,90.60
2017-08-11T10:55:21.344Z,90.50
2017-08-11T10:57:49.035Z,90.60
2017-08-11T11:00:16.690Z,90.60
2017-08-11T11:02:44.383Z,90.10
2017-08-11T11:05:12.035Z,90.00
2017-08-11T11:07:39.730Z,90.50
2017-08-11T11:10:07.383Z,90.30
2017-08-11T11:12:35.076Z,90.20
2017-08-11T11:15:02.721Z,90.30
2017-08-11T11:17:30.412Z,90.40
2017-08-11T11:19:58.059Z,90.70
2017-08-11T11:22:25.759Z,90.00
2017-08-11T11:24:53.407Z,90.00
2017-08-11T11:27:21.867Z,90.00
2017-08-11T11:29:49.517Z,89.80
2017-08-11T11:32:17.211Z,89.70
2017-08-11T11:34:44.863Z,89.70
2017-08-11T11:37:13.323Z,89.60
2017-08-11T11:39:40.971Z,89.50
2017-08-11T11:42:08.627Z,90.20
2017-08-11T11:44:36.324Z,88.90
2017-08-11T11:47:03.979Z,89.60
2017-08-11T11:49:31.670Z,87.30
2017-08-11T11:51:59.332Z,86.60
2017-08-11T11:54:27.027Z,86.80
2017-08-11T11:56:54.678Z,87.20
2017-08-11T11:59:22.371Z,86.80
2017-08-11T12:01:50.782Z,85.60
2017-08-11T12:04:18.474Z,85.50
2017-08-11T12:06:46.144Z,87.80
2017-08-11T12:09:13.863Z,85.80
2017-08-11T12:11:41.523Z,87.30
2017-08-11T12:14:09.223Z,88.50
2017-08-11T12:16:36.887Z,88.40
2017-08-11T12:19:04.575Z,88.60
2017-08-11T12:21:33.007Z,87.00
2017-08-11T12:24:00.703Z,87.00
2017-08-11T12:26:29.127Z,88.00
2017-08-11T12:28:56.815Z,88.00
2017-08-11T12:31:24.463Z,88.40
2017-08-11T12:33:52.151Z,88.70
2017-08-11T12:36:20.559Z,88.90
2017-08-11T12:38:48.246Z,88.90
2017-08-11T12:41:15.886Z,88.90
2017-08-11T12:43:43.572Z,89.30
2017-08-11T12:46:11.267Z,89.50
2017-08-11T12:48:38.911Z,89.60
2017-08-11T12:51:06.598Z,89.40
2017-08-11T12:53:35.006Z,90.00
2017-08-11T12:56:02.692Z,90.00
2017-08-11T12:58:30.345Z,89.70
2017-08-11T13:00:58.042Z,90.00
2017-08-11T13:03:26.460Z,89.60
2017-08-11T13:05:54.148Z,89.60
2017-08-11T13:08:21.795Z,90.00
2017-08-11T13:10:49.488Z,90.10
2017-08-11T13:13:17.130Z,90.10
2017-08-11T13:15:44.820Z,90.00
2017-08-11T13:18:13.230Z,90.30
2017-08-11T13:20:40.914Z,90.20
2017-08-11T13:23:08.554Z,90.30
2017-08-11T13:25:36.241Z,90.10
2017-08-11T13:28:03.892Z,89.90
2017-08-11T13:30:31.582Z,90.10
2017-08-11T13:32:59.226Z,90.60
2017-08-11T13:35:26.911Z,90.30
2017-08-11T13:37:55.319Z,90.20
2017-08-11T13:40:23.008Z,90.20
2017-08-11T13:42:50.679Z,90.20
2017-08-11T13:45:18.386Z,90.00
2017-08-11T13:47:46.039Z,90.20
2017-08-11T13:50:14.451Z,90.10
2017-08-11T13:52:42.142Z,90.10
2017-08-11T13:55:09.793Z,90.40
2017-08-11T13:57:37.483Z,90.70
2017-08-11T14:00:05.903Z,91.00
2017-08-11T14:02:33.600Z,91.00
2017-08-11T14:05:01.244Z,91.20
2017-08-11T14:07:28.931Z,90.60
2017-08-11T14:09:56.579Z,90.90
2017-08-11T14:12:24.277Z,90.60
2017-08-11T14:14:51.927Z,90.50
2017-08-11T14:17:20.388Z,90.60
2017-08-11T14:19:48.804Z,90.10
2017-08-11T14:22:16.501Z,90.20
2017-08-11T14:24:47.224Z,90.30
2017-08-11T14:27:14.908Z,90.10
2017-08-11T14:29:42.563Z,90.30
2017-08-11T14:32:10.262Z,90.50
2017-08-11T14:34:37.916Z,90.60
2017-08-11T14:37:05.619Z,90.50
2017-08-11T14:39:33.278Z,90.50
2017-08-11T14:42:00.995Z,90.70
2017-08-11T14:44:28.652Z,90.80
2017-08-11T14:46:57.114Z,90.60
2017-08-11T14:49:25.535Z,90.80
2017-08-11T14:51:53.227Z,90.80
2017-08-11T14:54:20.877Z,90.40
2017-08-11T14:56:48.586Z,90.30
2017-08-11T14:59:16.999Z,90.10
2017-08-11T15:01:44.647Z,90.00
2017-08-11T15:04:12.385Z,90.10
2017-08-11T15:06:40.046Z,90.00
2017-08-11T15:09:07.744Z,90.00
2017-08-11T15:11:35.399Z,90.30
2017-08-11T15:16:37.051Z,90.30
2017-08-11T15:19:04.753Z,90.30
2017-08-11T15:21:32.411Z,90.70
2017-08-11T15:24:00.108Z,90.40
2017-08-11T15:26:28.532Z,90.80
2017-08-11T15:28:56.224Z,90.70
2017-08-11T15:31:23.884Z,90.60
2017-08-11T15:33:52.356Z,90.90
2017-08-11T15:36:20.012Z,90.70
2017-08-11T15:38:47.706Z,90.50
2017-08-11T15:41:15.350Z,90.70
2017-08-11T15:43:43.815Z,90.90
2017-08-11T15:46:11.472Z,90.80
2017-08-11T15:48:39.167Z,90.40
2017-08-11T15:51:06.820Z,90.40
2017-08-11T15:53:34.530Z,90.20
2017-08-11T15:56:02.175Z,90.20
2017-08-11T15:58:29.831Z,90.00
2017-08-11T16:00:57.525Z,88.70
2017-08-11T16:03:25.174Z,88.60
2017-08-11T16:05:52.864Z,89.30
2017-08-11T16:08:20.518Z,89.50
2017-08-11T16:10:48.975Z,90.10
2017-08-11T16:13:16.631Z,90.10
2017-08-11T16:15:44.367Z,89.30
2017-08-11T16:18:12.028Z,89.70
2017-08-11T16:20:39.763Z,90.10
2017-08-11T16:23:07.411Z,90.10
2017-08-11T16:25:35.867Z,90.00
2017-08-11T16:28:03.514Z,90.00
2017-08-11T16:30:31.194Z,89.90
2017-08-11T16:32:59.602Z,90.60
2017-08-11T16:35:27.287Z,90.30
2017-08-11T16:37:54.951Z,90.40
2017-08-11T16:40:22.635Z,90.30
2017-08-11T16:42:50.278Z,90.40
2017-08-11T16:45:17.967Z,90.60
2017-08-11T16:47:46.379Z,90.10
2017-08-11T16:50:14.071Z,90.00
2017-08-11T16:52:41.719Z,90.20
2017-08-11T16:55:09.430Z,90.00
2017-08-11T16:57:37.846Z,89.70
2017-08-11T17:00:05.491Z,89.70
2017-08-11T17:02:33.178Z,88.80
2017-08-11T17:05:00.819Z,89.00
2017-08-11T17:07:28.504Z,89.30
2017-08-11T17:09:56.154Z,90.20
2017-08-11T17:12:23.844Z,90.50
2017-08-11T17:14:51.492Z,90.10
2017-08-11T17:17:19.185Z,90.30
2017-08-11T17:19:47.594Z,89.90
2017-08-11T17:22:15.283Z,89.90
2017-08-11T17:24:42.930Z,90.30
2017-08-11T17:27:10.614Z,90.40
2017-08-11T17:29:38.261Z,90.30
2017-08-11T17:32:05.956Z,90.40
2017-08-11T17:34:34.367Z,90.40
2017-08-11T17:37:02.060Z,90.30
2017-08-11T17:39:29.723Z,90.40
2017-08-11T17:41:57.415Z,90.40
2017-08-11T17:44:25.827Z,90.30
2017-08-11T17:46:53.520Z,90.30
2017-08-11T17:49:21.169Z,90.70
2017-08-11T17:51:48.858Z,91.20
2017-08-11T17:54:17.270Z,92.10
2017-08-11T17:56:44.983Z,91.70
2017-08-11T17:59:12.632Z,92.00
2017-08-11T18:01:40.274Z,92.70
2017-08-11T18:04:07.991Z,91.80
2017-08-11T18:06:35.644Z,92.00
2017-08-11T18:09:04.159Z,92.10
2017-08-11T18:11:31.808Z,92.00
2017-08-11T18:13:59.512Z,91.90
2017-08-11T18:16:27.155Z,92.00
2017-08-11T18:18:54.848Z,92.10
2017-08-11T18:21:22.500Z,92.00
2017-08-11T18:23:50.186Z,92.00
2017-08-11T18:26:18.599Z,91.70
2017-08-11T18:28:46.293Z,91.70
2017-08-11T18:31:13.952Z,91.80
2017-08-11T18:33:41.644Z,91.90
2017-08-11T18:36:09.296Z,91.50
2017-08-11T18:38:37.746Z,91.50
2017-08-11T18:41:05.404Z,91.50
2017-08-11T18:43:33.091Z,91.50
2017-08-11T18:46:00.748Z,91.80
2017-08-11T18:48:29.208Z,91.80
2017-08-11T18:50:56.863Z,92.10
2017-08-11T18:53:24.556Z,91.60
2017-08-11T18:55:52.206Z,91.40
2017-08-11T18:58:20.662Z,91.20
2017-08-11T19:00:48.307Z,91.20
2017-08-11T19:03:15.995Z,91.30
2017-08-11T19:05:44.410Z,91.10
2017-08-11T19:08:12.107Z,91.10
2017-08-11T19:10:39.759Z,91.20
2017-08-11T19:13:07.407Z,91.00
2017-08-11T19:15:35.098Z,90.80
2017-08-11T19:18:02.751Z,90.60
2017-08-11T19:20:30.456Z,91.20
2017-08-11T19:22:58.103Z,90.90
2017-08-11T19:25:26.560Z,91.50
2017-08-11T19:27:54.226Z,91.50
2017-08-11T19:30:22.688Z,92.20
2017-08-11T19:32:50.347Z,92.20
2017-08-11T19:35:18.044Z,92.40
2017-08-11T19:37:45.699Z,92.40
2017-08-11T19:40:13.396Z,92.70
2017-08-11T19:42:41.056Z,92.50
2017-08-11T19:45:08.763Z,92.40
2017-08-11T19:47:37.219Z,92.50
2017-08-11T19:50:04.923Z,92.50
2017-08-11T19:52:32.575Z,92.80
2017-08-11T19:55:00.265Z,93.00
2017-08-11T19:57:27.914Z,93.10
2017-08-11T19:59:55.614Z,92.80
2017-08-11T20:02:23.271Z,92.40
2017-08-11T20:04:50.964Z,91.90
2017-08-11T20:07:19.387Z,91.70
2017-08-11T20:09:47.060Z,91.70
2017-08-11T20:12:14.764Z,91.70
2017-08-11T20:14:43.186Z,91.50
2017-08-11T20:17:10.891Z,91.50
2017-08-11T20:19:39.315Z,91.30
2017-08-11T20:22:07.013Z,91.20
2017-08-11T20:24:34.671Z,91.00
2017-08-11T20:27:02.366Z,91.30
2017-08-11T20:29:30.022Z,91.20
2017-08-11T20:31:57.721Z,91.20
2017-08-11T20:34:25.389Z,91.00
2017-08-11T20:36:53.078Z,91.20
2017-08-11T20:39:20.769Z,91.70
2017-08-11T20:41:48.490Z,92.00
2017-08-11T20:44:16.155Z,91.80
2017-08-11T20:46:43.847Z,91.70
2017-08-11T20:49:11.503Z,91.40
2017-08-11T20:51:39.201Z,91.40
2017-08-11T20:54:06.858Z,91.70
2017-08-11T20:56:34.558Z,91.70
2017-08-11T20:59:02.234Z,91.90
2017-08-11T21:01:30.694Z,91.80
2017-08-11T21:03:58.347Z,91.70
2017-08-11T21:06:26.043Z,92.00
2017-08-11T21:08:53.695Z,92.00
2017-08-11T21:11:21.393Z,91.80
2017-08-11T21:13:49.047Z,91.90
2017-08-11T21:16:16.714Z,91.70
2017-08-11T21:18:44.415Z,91.80
2017-08-11T21:21:12.870Z,92.00
2017-08-11T21:23:40.588Z,91.90
2017-08-11T21:26:08.248Z,92.20
2017-08-11T21:28:35.939Z,91.90
2017-08-11T21:31:03.597Z,91.90
2017-08-11T21:33:31.290Z,92.00
2017-08-11T21:35:58.955Z,92.00
2017-08-11T21:38:26.647Z,92.10
2017-08-11T21:40:54.302Z,92.30
2017-08-11T21:43:22.000Z,92.30
2017-08-11T21:45:49.647Z,92.20
2017-08-11T21:48:17.337Z,92.40
2017-08-11T21:50:44.996Z,92.30
2017-08-11T21:53:12.683Z,92.30
2017-08-11T21:55:41.099Z,92.00
2017-08-11T21:58:08.795Z,92.00
2017-08-11T22:00:36.449Z,92.00
2017-08-11T22:03:04.178Z,92.20
2017-08-11T22:05:31.827Z,92.30
2017-08-11T22:07:59.524Z,91.80
2017-08-11T22:10:27.172Z,91.70
2017-08-11T22:12:54.867Z,91.90
2017-08-11T22:15:23.288Z,91.90
2017-08-11T22:17:51.004Z,91.90
2017-08-11T22:20:19.440Z,92.20
2017-08-11T22:22:47.235Z,92.20
2017-08-11T22:25:14.966Z,92.20
2017-08-11T22:27:42.614Z,92.40
2017-08-11T22:30:10.316Z,92.60
2017-08-11T22:32:37.966Z,92.60
2017-08-11T22:35:05.659Z,92.70
2017-08-11T22:37:33.303Z,92.80
2017-08-11T22:40:01.768Z,92.80
2017-08-11T22:42:29.423Z,92.80
2017-08-11T22:44:57.123Z,92.90
2017-08-11T22:47:24.775Z,92.90
2017-08-11T22:49:52.474Z,93.20
2017-08-11T22:52:20.122Z,93.20
2017-08-11T22:54:47.815Z,93.10
2017-08-11T22:57:15.462Z,93.00
2017-08-11T22:59:43.158Z,92.90
2017-08-11T23:02:11.569Z,92.90
2017-08-11T23:04:39.268Z,92.90
2017-08-11T23:07:06.919Z,93.00
2017-08-11T23:09:34.610Z,92.90
2017-08-11T23:12:03.031Z,92.70
2017-08-11T23:14:30.724Z,92.60
2017-08-11T23:16:58.373Z,92.60
2017-08-11T23:19:26.067Z,92.80
2017-08-11T23:21:54.487Z,92.90
2017-08-11T23:24:22.139Z,92.80
2017-08-11T23:26:49.829Z,92.80
2017-08-11T23:29:17.485Z,92.70
2017-08-11T23:31:45.183Z,92.80
2017-08-11T23:34:13.614Z,92.60
2017-08-11T23:36:41.311Z,92.60
2017-08-11T23:39:08.987Z,92.80
2017-08-11T23:41:36.691Z,92.90
2017-08-11T23:44:04.346Z,92.70
2017-08-11T23:46:32.038Z,93.00
2017-08-11T23:48:59.704Z,93.00
2017-08-11T23:51:27.403Z,93.20
2017-08-11T23:53:55.062Z,92.70
2017-08-11T23:56:22.767Z,92.90
2017-08-11T23:58:50.423Z,92.90
